MUCF/CFG METAR and TAF weather

Enter ICAO airport designator
Station Type Date Time Source
MUCF METAR 2021/03/05 06:59 UTC NOAA

MUCF 050659Z AUTO 07004KT 19/18 Q1014


Station Type Date Time Source
MUCF Decoded METAR 2021/03/05 06:59 UTC NOAA

Cienfuegos, Las Villas, Cuba (MUCF) 22-09N 080-24W 39M
Mar 05, 2021 - 01:59 AM EST / 2021.03.05 0659 UTC
Wind: from the ENE (070 degrees) at 5 MPH (4 KT):0
Temperature: 66 F (19 C)
Dew Point: 64 F (18 C)
Relative Humidity: 93%
Pressure (altimeter): 29.94 in. Hg (1014 hPa)
ob: MUCF 050659Z AUTO 07004KT 19/18 Q1014
cycle: 7

Station Type Date Time Source
MUCF TAF 2021/03/04 18:03 UTC NOAA

MUCF 041700Z 0418/0506 33008KT 9000 SCT020
TEMPO 0418/0424 5000 SHRA BKN020

Example: see airport list